sensor_id;sensor_type;location;lat;lon;timestamp;pressure;altitude;pressure_sealevel;temperature;humidity
37634;BME280;32048;49.902;22.508;2023-05-24T00:00:07;98247.78;;;15.05;100.00
37634;BME280;32048;49.902;22.508;2023-05-24T00:02:58;98250.66;;;15.02;100.00
37634;BME280;32048;49.902;22.508;2023-05-24T00:05:26;98254.31;;;15.01;100.00
37634;BME280;32048;49.902;22.508;2023-05-24T00:07:57;98263.22;;;15.00;100.00
37634;BME280;32048;49.902;22.508;2023-05-24T00:10:24;98265.16;;;14.97;100.00
37634;BME280;32048;49.902;22.508;2023-05-24T00:12:52;98260.72;;;14.98;100.00
37634;BME280;32048;49.902;22.508;2023-05-24T00:15:18;98267.13;;;14.95;100.00
37634;BME280;32048;49.902;22.508;2023-05-24T00:17:46;98260.09;;;14.94;100.00
37634;BME280;32048;49.902;22.508;2023-05-24T00:20:12;98265.53;;;14.93;100.00
37634;BME280;32048;49.902;22.508;2023-05-24T00:22:40;98268.31;;;14.91;100.00
37634;BME280;32048;49.902;22.508;2023-05-24T00:25:07;98269.50;;;14.87;100.00
37634;BME280;32048;49.902;22.508;2023-05-24T00:27:34;98266.47;;;14.81;100.00
37634;BME280;32048;49.902;22.508;2023-05-24T00:30:03;98265.03;;;14.76;100.00
37634;BME280;32048;49.902;22.508;2023-05-24T00:32:30;98266.22;;;14.72;100.00
37634;BME280;32048;49.902;22.508;2023-05-24T00:34:57;98263.91;;;14.68;100.00
37634;BME280;32048;49.902;22.508;2023-05-24T00:37:24;98268.75;;;14.63;100.00
37634;BME280;32048;49.902;22.508;2023-05-24T00:39:51;98263.16;;;14.54;100.00
37634;BME280;32048;49.902;22.508;2023-05-24T00:42:19;98267.22;;;14.47;100.00
37634;BME280;32048;49.902;22.508;2023-05-24T00:44:45;98256.22;;;14.41;100.00
37634;BME280;32048;49.902;22.508;2023-05-24T00:47:13;98256.66;;;14.34;100.00
37634;BME280;32048;49.902;22.508;2023-05-24T00:49:40;98263.31;;;14.29;100.00
37634;BME280;32048;49.902;22.508;2023-05-24T00:52:07;98262.81;;;14.24;100.00
37634;BME280;32048;49.902;22.508;2023-05-24T00:54:34;98252.41;;;14.21;100.00
37634;BME280;32048;49.902;22.508;2023-05-24T00:57:01;98259.63;;;14.19;100.00
37634;BME280;32048;49.902;22.508;2023-05-24T00:59:28;98259.13;;;14.13;100.00
37634;BME280;32048;49.902;22.508;2023-05-24T01:01:55;98259.22;;;14.12;100.00
37634;BME280;32048;49.902;22.508;2023-05-24T01:04:22;98262.88;;;14.11;100.00
37634;BME280;32048;49.902;22.508;2023-05-24T01:17:13;98267.28;;;13.99;100.00
37634;BME280;32048;49.902;22.508;2023-05-24T01:25:03;98268.81;;;13.90;100.00
37634;BME280;32048;49.902;22.508;2023-05-24T01:27:33;98271.91;;;13.84;100.00
37634;BME280;32048;49.902;22.508;2023-05-24T01:30:02;98269.59;;;13.80;100.00
37634;BME280;32048;49.902;22.508;2023-05-24T01:32:30;98270.88;;;13.74;100.00
37634;BME280;32048;49.902;22.508;2023-05-24T01:34:57;98272.78;;;13.72;100.00
37634;BME280;32048;49.902;22.508;2023-05-24T01:37:24;98272.28;;;13.67;100.00
37634;BME280;32048;49.902;22.508;2023-05-24T01:39:51;98275.25;;;13.62;100.00
37634;BME280;32048;49.902;22.508;2023-05-24T01:45:15;98272.94;;;13.58;100.00
37634;BME280;32048;49.902;22.508;2023-05-24T01:52:39;98279.34;;;13.42;100.00
37634;BME280;32048;49.902;22.508;2023-05-24T01:55:09;98277.00;;;13.38;100.00
37634;BME280;32048;49.902;22.508;2023-05-24T01:57:38;98269.63;;;13.30;100.00
37634;BME280;32048;49.902;22.508;2023-05-24T02:00:06;98274.47;;;13.23;100.00
37634;BME280;32048;49.902;22.508;2023-05-24T02:02:34;98273.09;;;13.18;100.00
37634;BME280;32048;49.902;22.508;2023-05-24T02:05:01;98275.13;;;13.14;100.00
37634;BME280;32048;49.902;22.508;2023-05-24T02:07:28;98271.00;;;13.10;100.00
37634;BME280;32048;49.902;22.508;2023-05-24T02:09:55;98270.16;;;13.09;100.00
37634;BME280;32048;49.902;22.508;2023-05-24T02:12:22;98275.53;;;13.08;100.00
37634;BME280;32048;49.902;22.508;2023-05-24T02:14:49;98278.19;;;13.08;100.00
37634;BME280;32048;49.902;22.508;2023-05-24T02:17:17;98270.34;;;13.06;100.00
37634;BME280;32048;49.902;22.508;2023-05-24T02:19:44;98279.34;;;13.04;100.00
37634;BME280;32048;49.902;22.508;2023-05-24T02:22:11;98277.88;;;13.00;100.00
37634;BME280;32048;49.902;22.508;2023-05-24T02:24:38;98285.22;;;12.96;100.00
37634;BME280;32048;49.902;22.508;2023-05-24T02:27:06;98282.88;;;12.92;100.00
37634;BME280;32048;49.902;22.508;2023-05-24T02:29:33;98282.31;;;12.86;100.00
37634;BME280;32048;49.902;22.508;2023-05-24T02:32:00;98282.56;;;12.83;100.00
37634;BME280;32048;49.902;22.508;2023-05-24T02:34:26;98280.13;;;12.80;100.00
37634;BME280;32048;49.902;22.508;2023-05-24T02:36:53;98290.06;;;12.77;100.00
37634;BME280;32048;49.902;22.508;2023-05-24T02:39:21;98286.69;;;12.75;100.00
37634;BME280;32048;49.902;22.508;2023-05-24T02:41:48;98293.13;;;12.71;100.00
37634;BME280;32048;49.902;22.508;2023-05-24T02:44:15;98298.56;;;12.69;100.00
37634;BME280;32048;49.902;22.508;2023-05-24T02:46:42;98294.19;;;12.68;100.00
37634;BME280;32048;49.902;22.508;2023-05-24T02:49:09;98302.78;;;12.72;100.00
37634;BME280;32048;49.902;22.508;2023-05-24T02:51:36;98303.31;;;12.77;100.00
37634;BME280;32048;49.902;22.508;2023-05-24T02:54:03;98307.78;;;12.76;100.00
37634;BME280;32048;49.902;22.508;2023-05-24T02:56:30;98313.25;;;12.73;100.00
37634;BME280;32048;49.902;22.508;2023-05-24T02:58:57;98307.88;;;12.75;100.00
37634;BME280;32048;49.902;22.508;2023-05-24T03:01:24;98309.59;;;12.76;100.00
37634;BME280;32048;49.902;22.508;2023-05-24T03:03:51;98315.50;;;12.79;100.00
37634;BME280;32048;49.902;22.508;2023-05-24T03:06:18;98317.94;;;12.82;100.00
37634;BME280;32048;49.902;22.508;2023-05-24T03:08:45;98311.38;;;12.88;100.00
37634;BME280;32048;49.902;22.508;2023-05-24T03:11:13;98315.53;;;12.92;100.00
37634;BME280;32048;49.902;22.508;2023-05-24T03:13:41;98317.84;;;12.97;100.00
37634;BME280;32048;49.902;22.508;2023-05-24T03:16:08;98322.00;;;13.01;100.00
37634;BME280;32048;49.902;22.508;2023-05-24T03:18:35;98318.28;;;13.03;100.00
37634;BME280;32048;49.902;22.508;2023-05-24T03:21:02;98321.53;;;13.07;100.00
37634;BME280;32048;49.902;22.508;2023-05-24T03:23:29;98324.63;;;13.14;100.00
37634;BME280;32048;49.902;22.508;2023-05-24T03:25:56;98322.53;;;13.19;100.00
37634;BME280;32048;49.902;22.508;2023-05-24T03:28:23;98316.78;;;13.25;100.00
37634;BME280;32048;49.902;22.508;2023-05-24T03:30:50;98331.22;;;13.34;100.00
37634;BME280;32048;49.902;22.508;2023-05-24T03:33:17;98326.13;;;13.43;100.00
37634;BME280;32048;49.902;22.508;2023-05-24T03:35:44;98327.81;;;13.57;100.00
37634;BME280;32048;49.902;22.508;2023-05-24T03:38:11;98328.50;;;13.72;100.00
37634;BME280;32048;49.902;22.508;2023-05-24T03:40:38;98331.13;;;13.85;100.00
37634;BME280;32048;49.902;22.508;2023-05-24T03:43:05;98333.75;;;13.98;100.00
37634;BME280;32048;49.902;22.508;2023-05-24T03:45:32;98340.81;;;14.10;100.00
37634;BME280;32048;49.902;22.508;2023-05-24T03:48:05;98337.28;;;14.22;100.00
37634;BME280;32048;49.902;22.508;2023-05-24T03:50:32;98341.66;;;14.34;100.00
37634;BME280;32048;49.902;22.508;2023-05-24T03:52:59;98340.03;;;14.45;100.00
37634;BME280;32048;49.902;22.508;2023-05-24T03:55:26;98347.97;;;14.58;100.00
37634;BME280;32048;49.902;22.508;2023-05-24T03:57:53;98347.03;;;14.70;100.00
37634;BME280;32048;49.902;22.508;2023-05-24T04:00:20;98352.50;;;14.80;100.00
37634;BME280;32048;49.902;22.508;2023-05-24T04:02:47;98349.88;;;14.91;100.00
37634;BME280;32048;49.902;22.508;2023-05-24T04:05:14;98354.50;;;15.00;100.00
37634;BME280;32048;49.902;22.508;2023-05-24T04:07:41;98350.41;;;15.07;100.00
37634;BME280;32048;49.902;22.508;2023-05-24T04:10:09;98358.63;;;15.15;100.00
37634;BME280;32048;49.902;22.508;2023-05-24T04:12:36;98360.69;;;15.23;100.00
37634;BME280;32048;49.902;22.508;2023-05-24T04:15:03;98360.97;;;15.31;100.00
37634;BME280;32048;49.902;22.508;2023-05-24T04:17:30;98364.47;;;15.43;100.00
37634;BME280;32048;49.902;22.508;2023-05-24T04:20:01;98362.56;;;15.56;100.00
37634;BME280;32048;49.902;22.508;2023-05-24T04:22:28;98362.31;;;15.71;100.00
37634;BME280;32048;49.902;22.508;2023-05-24T04:24:55;98366.53;;;15.85;100.00
37634;BME280;32048;49.902;22.508;2023-05-24T04:27:22;98367.25;;;15.98;100.00
37634;BME280;32048;49.902;22.508;2023-05-24T04:29:51;98362.25;;;16.16;100.00
37634;BME280;32048;49.902;22.508;2023-05-24T04:32:18;98364.66;;;16.30;100.00
37634;BME280;32048;49.902;22.508;2023-05-24T04:34:45;98367.28;;;16.41;100.00
37634;BME280;32048;49.902;22.508;2023-05-24T04:37:12;98370.88;;;16.52;100.00
37634;BME280;32048;49.902;22.508;2023-05-24T04:39:39;98365.88;;;16.58;100.00
37634;BME280;32048;49.902;22.508;2023-05-24T04:42:07;98365.50;;;16.63;100.00
37634;BME280;32048;49.902;22.508;2023-05-24T04:44:34;98370.34;;;16.69;100.00
37634;BME280;32048;49.902;22.508;2023-05-24T04:47:01;98371.38;;;16.78;100.00
37634;BME280;32048;49.902;22.508;2023-05-24T04:49:29;98376.97;;;16.86;100.00
37634;BME280;32048;49.902;22.508;2023-05-24T04:51:56;98373.53;;;16.95;100.00
37634;BME280;32048;49.902;22.508;2023-05-24T04:54:23;98377.09;;;17.06;100.00
37634;BME280;32048;49.902;22.508;2023-05-24T04:56:50;98372.41;;;17.19;100.00
37634;BME280;32048;49.902;22.508;2023-05-24T04:59:18;98373.75;;;17.34;100.00
37634;BME280;32048;49.902;22.508;2023-05-24T05:01:44;98374.13;;;17.51;100.00
37634;BME280;32048;49.902;22.508;2023-05-24T05:04:11;98377.00;;;17.69;100.00
37634;BME280;32048;49.902;22.508;2023-05-24T05:06:38;98377.66;;;17.82;100.00
37634;BME280;32048;49.902;22.508;2023-05-24T05:09:06;98386.56;;;17.92;100.00
37634;BME280;32048;49.902;22.508;2023-05-24T05:11:35;98378.84;;;17.99;100.00
37634;BME280;32048;49.902;22.508;2023-05-24T05:14:02;98386.47;;;18.03;100.00
37634;BME280;32048;49.902;22.508;2023-05-24T05:16:29;98391.13;;;18.11;100.00
37634;BME280;32048;49.902;22.508;2023-05-24T05:18:56;98389.59;;;18.18;100.00
37634;BME280;32048;49.902;22.508;2023-05-24T05:21:23;98396.94;;;18.26;99.81
37634;BME280;32048;49.902;22.508;2023-05-24T05:23:50;98389.91;;;18.35;99.63
37634;BME280;32048;49.902;22.508;2023-05-24T05:26:17;98401.75;;;18.52;100.00
37634;BME280;32048;49.902;22.508;2023-05-24T05:28:44;98403.59;;;18.61;98.05
37634;BME280;32048;49.902;22.508;2023-05-24T05:31:11;98408.09;;;18.60;96.78
37634;BME280;32048;49.902;22.508;2023-05-24T05:33:38;98412.72;;;18.58;98.41
37634;BME280;32048;49.902;22.508;2023-05-24T05:36:05;98405.59;;;18.59;98.77
37634;BME280;32048;49.902;22.508;2023-05-24T05:38:32;98414.56;;;18.58;96.71
37634;BME280;32048;49.902;22.508;2023-05-24T05:40:59;98412.31;;;18.53;98.92
37634;BME280;32048;49.902;22.508;2023-05-24T05:43:26;98414.44;;;18.59;99.63
37634;BME280;32048;49.902;22.508;2023-05-24T05:45:59;98423.47;;;18.68;98.36
37634;BME280;32048;49.902;22.508;2023-05-24T05:48:35;98431.78;;;18.75;97.37
37634;BME280;32048;49.902;22.508;2023-05-24T05:51:13;98427.28;;;18.85;98.36
37634;BME280;32048;49.902;22.508;2023-05-24T05:53:40;98427.31;;;18.95;95.94
37634;BME280;32048;49.902;22.508;2023-05-24T05:56:08;98432.66;;;19.04;96.70
37634;BME280;32048;49.902;22.508;2023-05-24T05:58:35;98429.41;;;19.10;96.51
37634;BME280;32048;49.902;22.508;2023-05-24T06:01:08;98433.75;;;19.21;95.75
37634;BME280;32048;49.902;22.508;2023-05-24T06:03:36;98437.72;;;19.27;94.15
37634;BME280;32048;49.902;22.508;2023-05-24T06:06:03;98442.63;;;19.31;94.46
37634;BME280;32048;49.902;22.508;2023-05-24T06:08:30;98446.00;;;19.34;93.42
37634;BME280;32048;49.902;22.508;2023-05-24T06:11:00;98446.84;;;19.44;93.95
37634;BME280;32048;49.902;22.508;2023-05-24T06:13:27;98449.38;;;19.55;92.67
37634;BME280;32048;49.902;22.508;2023-05-24T06:15:54;98447.81;;;19.72;92.61
37634;BME280;32048;49.902;22.508;2023-05-24T06:18:22;98454.94;;;19.91;92.92
37634;BME280;32048;49.902;22.508;2023-05-24T06:20:48;98457.41;;;20.12;93.12
37634;BME280;32048;49.902;22.508;2023-05-24T06:23:16;98462.16;;;20.46;90.08
37634;BME280;32048;49.902;22.508;2023-05-24T06:25:42;98465.84;;;20.72;85.11
37634;BME280;32048;49.902;22.508;2023-05-24T06:28:09;98468.31;;;20.84;82.90
37634;BME280;32048;49.902;22.508;2023-05-24T06:30:36;98481.03;;;20.82;82.48
37634;BME280;32048;49.902;22.508;2023-05-24T06:33:03;98474.44;;;20.76;84.15
37634;BME280;32048;49.902;22.508;2023-05-24T06:35:30;98475.50;;;20.65;85.45
37634;BME280;32048;49.902;22.508;2023-05-24T06:37:57;98477.53;;;20.81;87.62
37634;BME280;32048;49.902;22.508;2023-05-24T06:40:24;98479.69;;;21.13;85.88
37634;BME280;32048;49.902;22.508;2023-05-24T06:42:51;98480.22;;;21.53;80.71
37634;BME280;32048;49.902;22.508;2023-05-24T06:45:18;98478.69;;;21.76;80.25
37634;BME280;32048;49.902;22.508;2023-05-24T06:47:45;98478.84;;;22.01;78.15
37634;BME280;32048;49.902;22.508;2023-05-24T06:50:12;98482.63;;;22.16;76.86
37634;BME280;32048;49.902;22.508;2023-05-24T06:52:40;98487.69;;;22.19;76.36
37634;BME280;32048;49.902;22.508;2023-05-24T06:55:08;98489.28;;;22.30;76.51
37634;BME280;32048;49.902;22.508;2023-05-24T06:57:36;98488.34;;;22.13;76.71
37634;BME280;32048;49.902;22.508;2023-05-24T07:00:03;98493.53;;;22.07;79.04
37634;BME280;32048;49.902;22.508;2023-05-24T07:02:35;98487.81;;;22.10;77.17
37634;BME280;32048;49.902;22.508;2023-05-24T07:05:04;98490.72;;;22.16;76.46
37634;BME280;32048;49.902;22.508;2023-05-24T07:07:32;98495.00;;;22.27;73.66
37634;BME280;32048;49.902;22.508;2023-05-24T07:09:59;98502.25;;;22.27;74.78
37634;BME280;32048;49.902;22.508;2023-05-24T07:12:26;98503.81;;;22.46;77.56
37634;BME280;32048;49.902;22.508;2023-05-24T07:14:53;98503.91;;;22.70;74.01
37634;BME280;32048;49.902;22.508;2023-05-24T07:17:21;98509.38;;;22.95;71.58
37634;BME280;32048;49.902;22.508;2023-05-24T07:19:48;98507.25;;;23.15;70.36
37634;BME280;32048;49.902;22.508;2023-05-24T07:22:15;98512.00;;;23.37;69.76
37634;BME280;32048;49.902;22.508;2023-05-24T07:24:42;98517.41;;;23.45;70.87
37634;BME280;32048;49.902;22.508;2023-05-24T07:27:12;98523.47;;;23.48;70.38
37634;BME280;32048;49.902;22.508;2023-05-24T07:29:39;98524.97;;;23.50;70.44
37634;BME280;32048;49.902;22.508;2023-05-24T07:32:06;98521.59;;;23.64;68.51
37634;BME280;32048;49.902;22.508;2023-05-24T07:34:33;98516.72;;;23.93;66.04
37634;BME280;32048;49.902;22.508;2023-05-24T07:37:00;98523.38;;;24.38;67.79
37634;BME280;32048;49.902;22.508;2023-05-24T07:39:27;98526.06;;;24.85;64.05
37634;BME280;32048;49.902;22.508;2023-05-24T07:41:54;98534.16;;;25.17;59.76
37634;BME280;32048;49.902;22.508;2023-05-24T07:44:21;98534.31;;;25.23;56.57
37634;BME280;32048;49.902;22.508;2023-05-24T07:46:49;98529.09;;;25.22;57.90
37634;BME280;32048;49.902;22.508;2023-05-24T07:49:16;98536.31;;;25.29;56.71
37634;BME280;32048;49.902;22.508;2023-05-24T07:51:44;98535.44;;;25.29;59.23
37634;BME280;32048;49.902;22.508;2023-05-24T07:54:10;98534.94;;;25.34;55.25
37634;BME280;32048;49.902;22.508;2023-05-24T07:56:38;98538.06;;;25.45;57.99
37634;BME280;32048;49.902;22.508;2023-05-24T07:59:04;98533.78;;;25.74;56.52
37634;BME280;32048;49.902;22.508;2023-05-24T08:01:32;98526.38;;;25.91;54.11
37634;BME280;32048;49.902;22.508;2023-05-24T08:04:00;98530.06;;;26.28;52.87
37634;BME280;32048;49.902;22.508;2023-05-24T08:06:30;98526.34;;;26.73;53.02
37634;BME280;32048;49.902;22.508;2023-05-24T08:08:58;98529.59;;;27.20;50.72
37634;BME280;32048;49.902;22.508;2023-05-24T08:11:25;98534.16;;;27.56;49.61
37634;BME280;32048;49.902;22.508;2023-05-24T08:13:52;98529.25;;;27.66;48.09
37634;BME280;32048;49.902;22.508;2023-05-24T08:16:19;98532.63;;;27.47;46.69
37634;BME280;32048;49.902;22.508;2023-05-24T08:18:46;98535.88;;;27.21;47.80
37634;BME280;32048;49.902;22.508;2023-05-24T08:21:13;98539.00;;;26.88;49.28
37634;BME280;32048;49.902;22.508;2023-05-24T08:23:40;98531.84;;;26.65;49.64
37634;BME280;32048;49.902;22.508;2023-05-24T08:26:07;98532.91;;;27.01;48.45
37634;BME280;32048;49.902;22.508;2023-05-24T08:28:34;98537.25;;;27.31;49.06
37634;BME280;32048;49.902;22.508;2023-05-24T08:31:01;98539.84;;;27.83;50.11
37634;BME280;32048;49.902;22.508;2023-05-24T08:33:30;98536.72;;;28.70;49.83
37634;BME280;32048;49.902;22.508;2023-05-24T08:35:58;98535.53;;;29.68;41.83
37634;BME280;32048;49.902;22.508;2023-05-24T08:38:25;98541.19;;;30.53;43.28
37634;BME280;32048;49.902;22.508;2023-05-24T08:40:52;98540.47;;;30.91;40.16
37634;BME280;32048;49.902;22.508;2023-05-24T08:43:19;98537.84;;;31.09;40.09
37634;BME280;32048;49.902;22.508;2023-05-24T08:45:47;98543.13;;;31.04;39.56
37634;BME280;32048;49.902;22.508;2023-05-24T08:48:14;98536.00;;;30.96;39.60
37634;BME280;32048;49.902;22.508;2023-05-24T08:50:44;98545.06;;;30.83;39.92
37634;BME280;32048;49.902;22.508;2023-05-24T08:53:12;98546.59;;;30.66;39.66
37634;BME280;32048;49.902;22.508;2023-05-24T08:55:40;98546.00;;;30.51;39.46
37634;BME280;32048;49.902;22.508;2023-05-24T08:58:09;98544.75;;;30.26;40.48
37634;BME280;32048;49.902;22.508;2023-05-24T09:00:37;98535.38;;;30.16;40.32
37634;BME280;32048;49.902;22.508;2023-05-24T09:03:03;98529.69;;;30.31;40.84
37634;BME280;32048;49.902;22.508;2023-05-24T09:05:31;98538.44;;;30.59;40.90
37634;BME280;32048;49.902;22.508;2023-05-24T09:07:58;98542.94;;;30.99;41.00
37634;BME280;32048;49.902;22.508;2023-05-24T09:10:27;98537.66;;;31.49;38.75
37634;BME280;32048;49.902;22.508;2023-05-24T09:13:06;98541.13;;;31.88;37.64
37634;BME280;32048;49.902;22.508;2023-05-24T09:15:34;98543.91;;;32.13;37.21
37634;BME280;32048;49.902;22.508;2023-05-24T09:18:01;98551.69;;;32.09;36.65
37634;BME280;32048;49.902;22.508;2023-05-24T09:20:29;98553.81;;;32.07;36.04
37634;BME280;32048;49.902;22.508;2023-05-24T09:22:56;98552.38;;;32.05;35.79
37634;BME280;32048;49.902;22.508;2023-05-24T09:25:24;98550.41;;;31.87;36.71
37634;BME280;32048;49.902;22.508;2023-05-24T09:27:53;98551.41;;;31.22;38.27
37634;BME280;32048;49.902;22.508;2023-05-24T09:30:20;98561.50;;;30.57;39.09
37634;BME280;32048;49.902;22.508;2023-05-24T09:32:54;98555.47;;;30.01;40.26
37634;BME280;32048;49.902;22.508;2023-05-24T09:35:23;98563.38;;;29.63;41.99
37634;BME280;32048;49.902;22.508;2023-05-24T09:37:58;98572.06;;;29.25;41.95
37634;BME280;32048;49.902;22.508;2023-05-24T09:40:26;98567.13;;;28.94;42.74
37634;BME280;32048;49.902;22.508;2023-05-24T09:43:03;98571.47;;;28.81;42.43
37634;BME280;32048;49.902;22.508;2023-05-24T09:45:30;98571.78;;;29.07;44.45
37634;BME280;32048;49.902;22.508;2023-05-24T09:47:57;98565.72;;;29.73;42.33
37634;BME280;32048;49.902;22.508;2023-05-24T09:50:25;98571.78;;;30.48;41.75
37634;BME280;32048;49.902;22.508;2023-05-24T09:52:52;98568.25;;;31.58;41.06
37634;BME280;32048;49.902;22.508;2023-05-24T09:55:22;98565.41;;;32.90;38.98
37634;BME280;32048;49.902;22.508;2023-05-24T09:57:50;98562.78;;;34.16;36.37
37634;BME280;32048;49.902;22.508;2023-05-24T10:00:22;98578.22;;;35.16;32.58
37634;BME280;32048;49.902;22.508;2023-05-24T10:02:59;98570.41;;;35.83;32.41
37634;BME280;32048;49.902;22.508;2023-05-24T10:05:26;98579.41;;;36.46;30.53
37634;BME280;32048;49.902;22.508;2023-05-24T10:07:54;98579.19;;;37.08;30.98
37634;BME280;32048;49.902;22.508;2023-05-24T10:10:22;98579.16;;;37.79;28.10
37634;BME280;32048;49.902;22.508;2023-05-24T10:12:49;98575.63;;;38.16;27.63
37634;BME280;32048;49.902;22.508;2023-05-24T10:15:17;98591.31;;;38.11;27.73
37634;BME280;32048;49.902;22.508;2023-05-24T10:17:44;98587.22;;;37.86;27.74
37634;BME280;32048;49.902;22.508;2023-05-24T10:20:11;98588.31;;;37.58;27.87
37634;BME280;32048;49.902;22.508;2023-05-24T10:22:40;98593.22;;;37.29;26.84
37634;BME280;32048;49.902;22.508;2023-05-24T10:25:08;98586.78;;;36.79;26.86
37634;BME280;32048;49.902;22.508;2023-05-24T10:27:37;98599.09;;;36.20;27.82
37634;BME280;32048;49.902;22.508;2023-05-24T10:32:39;98603.25;;;35.20;29.59
37634;BME280;32048;49.902;22.508;2023-05-24T10:35:08;98596.53;;;34.87;30.59
37634;BME280;32048;49.902;22.508;2023-05-24T10:37:37;98603.94;;;34.63;31.04
37634;BME280;32048;49.902;22.508;2023-05-24T10:40:05;98602.13;;;34.33;31.39
37634;BME280;32048;49.902;22.508;2023-05-24T10:42:35;98601.56;;;34.01;31.44
37634;BME280;32048;49.902;22.508;2023-05-24T10:45:52;98601.41;;;33.72;31.92
37634;BME280;32048;49.902;22.508;2023-05-24T10:47:52;98602.63;;;33.28;32.40
37634;BME280;32048;49.902;22.508;2023-05-24T10:50:22;98601.66;;;32.67;33.56
37634;BME280;32048;49.902;22.508;2023-05-24T10:52:49;98594.84;;;32.26;34.63
37634;BME280;32048;49.902;22.508;2023-05-24T10:55:17;98590.06;;;31.89;35.38
37634;BME280;32048;49.902;22.508;2023-05-24T10:57:44;98576.00;;;31.61;35.27
37634;BME280;32048;49.902;22.508;2023-05-24T11:03:00;98586.16;;;31.47;36.96
37634;BME280;32048;49.902;22.508;2023-05-24T11:05:32;98593.63;;;31.97;36.73
37634;BME280;32048;49.902;22.508;2023-05-24T11:07:59;98592.59;;;32.66;35.45
37634;BME280;32048;49.902;22.508;2023-05-24T11:10:30;98603.91;;;33.44;34.66
37634;BME280;32048;49.902;22.508;2023-05-24T11:13:00;98593.50;;;34.06;33.35
37634;BME280;32048;49.902;22.508;2023-05-24T11:15:28;98593.22;;;34.73;32.65
37634;BME280;32048;49.902;22.508;2023-05-24T11:20:35;98598.75;;;35.83;29.83
37634;BME280;32048;49.902;22.508;2023-05-24T11:23:02;98596.91;;;36.06;29.92
37634;BME280;32048;49.902;22.508;2023-05-24T11:25:31;98593.53;;;36.15;29.65
37634;BME280;32048;49.902;22.508;2023-05-24T11:27:58;98593.13;;;36.24;30.37
37634;BME280;32048;49.902;22.508;2023-05-24T11:30:27;98594.84;;;36.30;29.63
37634;BME280;32048;49.902;22.508;2023-05-24T11:32:55;98586.34;;;36.31;29.58
37634;BME280;32048;49.902;22.508;2023-05-24T11:35:23;98591.94;;;36.19;29.59
37634;BME280;32048;49.902;22.508;2023-05-24T11:37:53;98591.59;;;35.99;30.12
37634;BME280;32048;49.902;22.508;2023-05-24T11:40:20;98598.91;;;35.93;29.74
37634;BME280;32048;49.902;22.508;2023-05-24T11:42:47;98590.09;;;35.34;30.52
37634;BME280;32048;49.902;22.508;2023-05-24T11:45:16;98588.22;;;35.11;30.34
37634;BME280;32048;49.902;22.508;2023-05-24T11:47:44;98586.22;;;35.06;31.69
37634;BME280;32048;49.902;22.508;2023-05-24T11:50:14;98594.13;;;35.03;31.60
37634;BME280;32048;49.902;22.508;2023-05-24T11:52:42;98586.59;;;34.98;30.99
37634;BME280;32048;49.902;22.508;2023-05-24T11:55:10;98596.31;;;34.65;31.76
37634;BME280;32048;49.902;22.508;2023-05-24T11:57:40;98579.81;;;34.42;33.33
37634;BME280;32048;49.902;22.508;2023-05-24T12:00:10;98580.84;;;33.93;33.69
37634;BME280;32048;49.902;22.508;2023-05-24T12:02:42;98583.19;;;33.78;34.91
37634;BME280;32048;49.902;22.508;2023-05-24T12:05:10;98580.56;;;33.71;34.48
37634;BME280;32048;49.902;22.508;2023-05-24T12:07:38;98582.94;;;33.49;35.01
37634;BME280;32048;49.902;22.508;2023-05-24T12:10:06;98581.59;;;33.40;34.62
37634;BME280;32048;49.902;22.508;2023-05-24T12:12:33;98583.72;;;33.57;33.20
37634;BME280;32048;49.902;22.508;2023-05-24T12:15:11;98584.69;;;33.62;34.58
37634;BME280;32048;49.902;22.508;2023-05-24T12:17:40;98586.06;;;33.53;34.87
37634;BME280;32048;49.902;22.508;2023-05-24T12:20:08;98587.97;;;33.52;34.65
37634;BME280;32048;49.902;22.508;2023-05-24T12:22:35;98594.59;;;33.45;34.04
37634;BME280;32048;49.902;22.508;2023-05-24T12:25:03;98592.34;;;33.05;35.20
37634;BME280;32048;49.902;22.508;2023-05-24T12:27:30;98590.03;;;32.71;36.16
37634;BME280;32048;49.902;22.508;2023-05-24T12:30:05;98585.75;;;32.32;36.51
37634;BME280;32048;49.902;22.508;2023-05-24T12:32:32;98592.34;;;31.99;37.34
37634;BME280;32048;49.902;22.508;2023-05-24T12:34:59;98597.94;;;31.73;37.64
37634;BME280;32048;49.902;22.508;2023-05-24T12:37:29;98589.50;;;31.49;37.74
37634;BME280;32048;49.902;22.508;2023-05-24T12:39:58;98583.63;;;31.39;37.99
37634;BME280;32048;49.902;22.508;2023-05-24T12:42:25;98594.84;;;31.31;38.47
37634;BME280;32048;49.902;22.508;2023-05-24T12:44:53;98588.53;;;31.30;39.65
37634;BME280;32048;49.902;22.508;2023-05-24T12:47:19;98586.44;;;31.25;38.55
37634;BME280;32048;49.902;22.508;2023-05-24T12:49:47;98582.50;;;31.21;39.49
37634;BME280;32048;49.902;22.508;2023-05-24T12:52:14;98584.81;;;31.18;38.29
37634;BME280;32048;49.902;22.508;2023-05-24T12:54:41;98580.44;;;31.10;39.01
37634;BME280;32048;49.902;22.508;2023-05-24T12:57:08;98589.06;;;31.00;39.03
37634;BME280;32048;49.902;22.508;2023-05-24T12:59:35;98588.88;;;30.95;38.62
37634;BME280;32048;49.902;22.508;2023-05-24T13:02:02;98592.25;;;30.84;37.89
37634;BME280;32048;49.902;22.508;2023-05-24T13:04:29;98590.00;;;30.67;38.11
37634;BME280;32048;49.902;22.508;2023-05-24T13:07:00;98592.31;;;30.57;38.13
37634;BME280;32048;49.902;22.508;2023-05-24T13:09:28;98579.16;;;30.41;39.07
37634;BME280;32048;49.902;22.508;2023-05-24T13:11:55;98581.22;;;30.19;38.65
37634;BME280;32048;49.902;22.508;2023-05-24T13:14:22;98584.78;;;29.99;39.32
37634;BME280;32048;49.902;22.508;2023-05-24T13:16:49;98596.75;;;29.92;40.46
37634;BME280;32048;49.902;22.508;2023-05-24T13:19:16;98594.41;;;29.95;39.89